createdAt,value
2022-08-18T00:02:29.982Z,3.53
2022-08-18T00:04:58.470Z,3.78
2022-08-18T00:07:31.157Z,3.35
2022-08-18T00:10:00.505Z,3.88
2022-08-18T00:12:40.193Z,3.58
2022-08-18T00:15:11.987Z,3.55
2022-08-18T00:17:40.695Z,3.33
2022-08-18T00:20:12.060Z,3.45
2022-08-18T00:22:45.384Z,3.33
2022-08-18T00:25:23.180Z,3.70
2022-08-18T00:27:51.081Z,3.63
2022-08-18T00:30:21.294Z,3.90
2022-08-18T00:32:52.596Z,3.38
2022-08-18T00:35:33.145Z,4.22
2022-08-18T00:38:03.425Z,3.22
2022-08-18T00:40:38.091Z,3.22
2022-08-18T00:43:12.829Z,3.70
2022-08-18T00:45:43.280Z,4.00
2022-08-18T00:48:12.532Z,3.90
2022-08-18T00:50:49.426Z,4.00
2022-08-18T00:53:42.183Z,3.78
2022-08-18T00:56:18.467Z,3.17
2022-08-18T00:58:56.209Z,3.83
2022-08-18T01:01:26.898Z,4.18
2022-08-18T01:04:00.719Z,3.70
2022-08-18T01:06:46.969Z,3.83
2022-08-18T01:09:17.630Z,3.70
2022-08-18T01:11:45.818Z,3.38
2022-08-18T01:14:18.471Z,3.75
2022-08-18T01:17:07.307Z,3.25
2022-08-18T01:19:54.982Z,4.55
2022-08-18T01:22:22.885Z,4.00
2022-08-18T01:25:10.699Z,3.72
2022-08-18T01:27:39.409Z,3.53
2022-08-18T01:30:11.012Z,3.72
2022-08-18T01:32:41.740Z,3.50
2022-08-18T01:35:11.859Z,3.90
2022-08-18T01:37:41.545Z,3.10
2022-08-18T01:41:22.510Z,3.53
2022-08-18T01:43:04.431Z,3.55
2022-08-18T01:45:35.449Z,3.55
2022-08-18T01:48:04.993Z,3.92
2022-08-18T01:50:36.299Z,3.70
2022-08-18T01:53:07.678Z,3.35
2022-08-18T01:55:37.394Z,3.70
2022-08-18T01:58:08.016Z,3.30
2022-08-18T02:00:36.763Z,3.75
2022-08-18T02:03:08.617Z,3.60
2022-08-18T02:05:50.613Z,3.88
2022-08-18T02:08:18.733Z,3.58
2022-08-18T02:10:46.866Z,3.63
2022-08-18T02:13:21.220Z,4.05
2022-08-18T02:15:48.923Z,3.25
2022-08-18T02:18:46.884Z,4.03
2022-08-18T02:21:18.881Z,3.47
2022-08-18T02:23:49.252Z,4.10
2022-08-18T02:26:23.570Z,3.70
2022-08-18T02:28:52.015Z,3.63
2022-08-18T02:31:22.582Z,3.85
2022-08-18T02:33:51.978Z,3.75
2022-08-18T02:36:25.065Z,3.53
2022-08-18T02:38:54.870Z,3.65
2022-08-18T02:41:29.208Z,4.22
2022-08-18T02:43:58.735Z,3.75
2022-08-18T02:46:30.183Z,3.50
2022-08-18T02:49:02.237Z,3.90
2022-08-18T02:51:30.381Z,4.22
2022-08-18T02:54:01.057Z,3.45
2022-08-18T02:56:32.960Z,4.13
2022-08-18T02:59:11.774Z,3.67
2022-08-18T03:01:43.531Z,3.72
2022-08-18T03:04:16.017Z,3.92
2022-08-18T03:06:45.378Z,3.22
2022-08-18T03:09:15.761Z,3.80
2022-08-18T03:11:44.355Z,3.40
2022-08-18T03:14:13.676Z,3.55
2022-08-18T03:16:52.944Z,3.60
2022-08-18T03:19:25.427Z,3.78
2022-08-18T03:21:53.318Z,3.15
2022-08-18T03:24:22.309Z,3.75
2022-08-18T03:26:51.014Z,3.85
2022-08-18T03:29:19.595Z,3.33
2022-08-18T03:31:48.961Z,3.78
2022-08-18T03:34:19.858Z,4.07
2022-08-18T03:36:50.530Z,3.95
2022-08-18T03:39:19.821Z,3.15
2022-08-18T03:41:58.431Z,4.32
2022-08-18T03:44:33.829Z,4.00
2022-08-18T03:47:03.868Z,4.05
2022-08-18T03:49:33.887Z,3.75
2022-08-18T03:52:03.037Z,3.25
2022-08-18T03:54:34.594Z,4.13
2022-08-18T03:57:02.560Z,4.03
2022-08-18T03:59:32.278Z,3.17
2022-08-18T04:02:03.460Z,3.75
2022-08-18T04:04:34.704Z,3.70
2022-08-18T04:07:10.853Z,3.80
2022-08-18T04:09:39.002Z,4.00
2022-08-18T04:12:15.410Z,3.65
2022-08-18T04:14:50.097Z,3.80
2022-08-18T04:17:24.451Z,3.92
2022-08-18T04:19:58.569Z,3.90
2022-08-18T04:22:26.757Z,3.00
2022-08-18T04:24:55.996Z,3.65
2022-08-18T04:27:25.981Z,5.25
2022-08-18T04:29:56.995Z,3.85
2022-08-18T04:32:30.756Z,4.32
2022-08-18T04:34:58.792Z,4.53
2022-08-18T04:37:32.552Z,4.15
2022-08-18T04:40:07.806Z,3.72
2022-08-18T04:42:35.670Z,4.07
2022-08-18T04:45:08.347Z,3.90
2022-08-18T04:47:39.265Z,4.20
2022-08-18T04:50:07.690Z,3.90
2022-08-18T04:52:54.020Z,3.70
2022-08-18T04:57:50.032Z,3.92
2022-08-18T05:00:19.620Z,3.15
2022-08-18T05:02:47.358Z,4.43
2022-08-18T05:05:15.319Z,3.80
2022-08-18T05:07:47.191Z,4.60
2022-08-18T05:10:17.768Z,3.45
2022-08-18T05:12:47.859Z,4.15
2022-08-18T05:15:17.673Z,4.35
2022-08-18T05:17:45.611Z,4.05
2022-08-18T05:20:18.514Z,4.55
2022-08-18T05:22:47.234Z,4.07
2022-08-18T05:25:14.950Z,3.53
2022-08-18T05:27:44.124Z,3.40
2022-08-18T05:30:14.931Z,3.60
2022-08-18T05:32:49.095Z,3.97
2022-08-18T05:35:32.337Z,3.50
2022-08-18T05:38:09.302Z,3.92
2022-08-18T05:40:37.648Z,3.60
2022-08-18T05:43:06.996Z,4.57
2022-08-18T05:45:35.634Z,3.45
2022-08-18T05:48:03.596Z,3.40
2022-08-18T05:50:35.300Z,3.88
2022-08-18T05:53:13.183Z,4.22
2022-08-18T05:56:21.837Z,4.00
2022-08-18T05:58:52.994Z,4.25
2022-08-18T06:01:25.700Z,3.92
2022-08-18T06:04:01.190Z,3.70
2022-08-18T06:06:31.882Z,5.18
2022-08-18T06:09:08.385Z,5.70
2022-08-18T06:11:36.313Z,5.45
2022-08-18T06:14:04.762Z,4.97
2022-08-18T06:16:54.228Z,4.25
2022-08-18T06:19:46.801Z,3.85
2022-08-18T06:22:30.610Z,3.90
2022-08-18T06:25:33.211Z,3.22
2022-08-18T06:28:14.288Z,4.07
2022-08-18T06:30:57.598Z,3.75
2022-08-18T06:33:25.444Z,3.65
2022-08-18T06:36:00.742Z,4.13
2022-08-18T06:38:40.413Z,3.65
2022-08-18T06:41:41.887Z,4.40
2022-08-18T06:44:22.634Z,3.95
2022-08-18T06:47:32.634Z,4.38
2022-08-18T06:50:11.544Z,4.43
2022-08-18T06:52:59.245Z,3.78
2022-08-18T06:55:39.803Z,4.25
2022-08-18T06:58:30.493Z,4.18
2022-08-18T07:01:02.521Z,3.17
2022-08-18T07:03:39.577Z,3.70
2022-08-18T07:06:30.207Z,3.47
2022-08-18T07:09:20.626Z,3.80
2022-08-18T07:12:04.430Z,4.00
2022-08-18T07:14:43.085Z,3.38
2022-08-18T07:17:14.396Z,4.25
2022-08-18T07:19:42.662Z,4.25
2022-08-18T07:22:14.558Z,3.45
2022-08-18T07:24:51.066Z,3.67
2022-08-18T07:27:22.968Z,3.88
2022-08-18T07:30:15.571Z,3.50
2022-08-18T07:32:47.294Z,3.05
2022-08-18T07:35:32.549Z,3.35
2022-08-18T07:38:43.817Z,4.13
2022-08-18T07:41:24.221Z,3.35
2022-08-18T07:44:29.487Z,3.60
2022-08-18T07:47:04.933Z,3.17
2022-08-18T07:52:44.270Z,3.80
2022-08-18T07:55:30.810Z,3.45
2022-08-18T07:58:20.575Z,3.47
2022-08-18T08:01:18.968Z,3.75
2022-08-18T08:04:08.105Z,3.65
2022-08-18T08:07:06.175Z,4.10
2022-08-18T08:09:43.000Z,3.20
2022-08-18T08:12:31.515Z,3.58
2022-08-18T08:15:26.601Z,3.83
2022-08-18T08:18:12.479Z,3.60
2022-08-18T08:20:56.192Z,3.45
2022-08-18T08:23:45.517Z,3.30
2022-08-18T08:26:28.248Z,3.83
2022-08-18T08:28:58.739Z,3.45
2022-08-18T08:31:49.068Z,3.65
2022-08-18T08:34:34.884Z,4.25
2022-08-18T08:39:50.167Z,3.45
2022-08-18T08:45:11.932Z,3.65
2022-08-18T08:48:08.439Z,3.22
2022-08-18T08:51:01.548Z,3.03
2022-08-18T08:54:05.469Z,3.08
2022-08-18T08:56:44.189Z,3.00
2022-08-18T08:59:14.990Z,2.80
2022-08-18T09:02:37.855Z,2.40
2022-08-18T09:05:14.701Z,3.13
2022-08-18T09:08:18.135Z,3.33
2022-08-18T09:11:07.638Z,2.25
2022-08-18T09:13:54.093Z,3.45
2022-08-18T09:16:40.081Z,2.88
2022-08-18T09:19:36.015Z,3.90
2022-08-18T09:24:53.297Z,2.88
2022-08-18T09:27:24.120Z,2.90
2022-08-18T09:29:58.009Z,2.55
2022-08-18T09:32:26.251Z,2.80
2022-08-18T09:35:24.222Z,3.45
2022-08-18T09:38:15.512Z,2.80
2022-08-18T09:41:26.006Z,1.90
2022-08-18T09:44:12.037Z,3.13
2022-08-18T09:46:48.860Z,2.60
2022-08-18T09:49:22.851Z,2.75
2022-08-18T09:51:52.652Z,2.23
2022-08-18T09:54:26.774Z,2.50
2022-08-18T09:57:05.302Z,2.42
2022-08-18T10:02:28.424Z,2.63
2022-08-18T10:05:15.311Z,1.98
2022-08-18T10:07:50.760Z,2.65
2022-08-18T10:10:59.915Z,2.47
2022-08-18T10:13:48.935Z,2.45
2022-08-18T10:17:15.669Z,2.58
2022-08-18T10:19:48.192Z,1.92
2022-08-18T10:22:37.313Z,2.00
2022-08-18T10:25:22.310Z,2.40
2022-08-18T10:27:55.719Z,1.75
2022-08-18T10:30:34.509Z,2.20
2022-08-18T10:33:17.929Z,1.95
2022-08-18T10:35:59.417Z,2.05
2022-08-18T10:38:49.709Z,2.92
2022-08-18T10:41:27.257Z,2.13
2022-08-18T10:46:53.327Z,1.88
2022-08-18T10:49:31.866Z,1.50
2022-08-18T10:52:25.989Z,2.13
2022-08-18T10:55:10.230Z,1.80
2022-08-18T10:57:54.551Z,1.92
2022-08-18T11:00:27.842Z,1.50
2022-08-18T11:03:49.977Z,2.10
2022-08-18T11:06:06.982Z,1.70
2022-08-18T11:08:46.990Z,1.73
2022-08-18T11:14:16.602Z,1.60
2022-08-18T11:16:54.074Z,2.38
2022-08-18T11:19:23.264Z,2.35
2022-08-18T11:21:53.020Z,2.42
2022-08-18T11:24:27.916Z,2.13
2022-08-18T11:29:34.772Z,3.75
2022-08-18T11:32:12.530Z,1.88
2022-08-18T11:34:52.833Z,2.20
2022-08-18T11:37:27.491Z,2.40
2022-08-18T11:39:59.438Z,1.85
2022-08-18T11:42:35.570Z,2.23
2022-08-18T11:45:17.673Z,2.70
2022-08-18T11:48:14.530Z,2.53
2022-08-18T11:50:55.489Z,1.88
2022-08-18T11:53:53.851Z,2.13
2022-08-18T11:56:31.373Z,3.40
2022-08-18T11:59:55.010Z,1.45
2022-08-18T12:02:26.032Z,1.55
2022-08-18T12:05:08.448Z,1.33
2022-08-18T12:07:57.177Z,1.50
2022-08-18T12:10:30.851Z,1.63
2022-08-18T12:15:47.892Z,1.20
2022-08-18T12:18:19.010Z,1.88
2022-08-18T12:20:59.167Z,2.00
2022-08-18T12:23:28.062Z,1.88
2022-08-18T12:26:27.043Z,0.95
2022-08-18T12:29:01.731Z,1.58
2022-08-18T12:31:45.766Z,1.50
2022-08-18T12:34:24.901Z,1.33
2022-08-18T12:36:58.083Z,1.20
2022-08-18T12:39:25.932Z,1.10
2022-08-18T12:41:54.404Z,1.48
2022-08-18T12:44:22.187Z,1.58
2022-08-18T12:46:50.622Z,1.60
2022-08-18T12:49:21.815Z,1.48
2022-08-18T12:51:51.076Z,1.83
2022-08-18T12:54:20.189Z,1.70
2022-08-18T12:56:54.209Z,1.80
2022-08-18T13:21:54.716Z,0.90
2022-08-18T13:24:25.190Z,1.63
2022-08-18T13:26:56.408Z,1.50
2022-08-18T13:29:24.786Z,0.88
2022-08-18T13:31:57.796Z,1.17
2022-08-18T13:34:29.817Z,1.33
2022-08-18T13:36:58.184Z,1.83
2022-08-18T13:39:34.225Z,1.23
2022-08-18T13:42:26.482Z,1.17
2022-08-18T13:44:53.496Z,1.05
2022-08-18T13:47:23.447Z,1.52
2022-08-18T13:49:57.951Z,1.02
2022-08-18T13:52:41.157Z,1.30
2022-08-18T13:55:17.491Z,1.15
2022-08-18T13:57:50.051Z,0.73
2022-08-18T14:00:30.379Z,1.02
2022-08-18T14:03:03.070Z,1.30
2022-08-18T14:05:36.520Z,1.15
2022-08-18T14:10:53.999Z,1.60
2022-08-18T14:13:24.541Z,1.40
2022-08-18T14:15:56.138Z,2.35
2022-08-18T14:18:28.855Z,2.30
2022-08-18T14:21:23.170Z,2.75
2022-08-18T14:24:14.198Z,2.00
2022-08-18T14:26:50.379Z,1.60
2022-08-18T14:29:46.698Z,1.48
2022-08-18T14:32:07.443Z,1.23
2022-08-18T14:34:37.317Z,1.45
2022-08-18T14:37:05.018Z,1.17
2022-08-18T14:39:37.779Z,1.58
2022-08-18T14:42:06.043Z,0.75
2022-08-18T14:44:36.107Z,0.90
2022-08-18T14:47:03.845Z,0.88
2022-08-18T14:49:32.322Z,1.17
2022-08-18T14:52:19.279Z,1.50
2022-08-18T14:54:51.073Z,1.17
2022-08-18T14:59:58.070Z,1.38
2022-08-18T15:02:27.347Z,1.30
2022-08-18T15:04:57.796Z,1.02
2022-08-18T15:07:28.861Z,1.15
2022-08-18T15:10:15.004Z,0.85
2022-08-18T15:12:44.955Z,1.13
2022-08-18T15:15:16.784Z,1.20
2022-08-18T15:17:52.447Z,1.45
2022-08-18T15:20:29.654Z,1.38
2022-08-18T15:23:28.244Z,1.33
2022-08-18T15:25:59.701Z,1.00
2022-08-18T15:28:28.242Z,1.30
2022-08-18T15:33:44.209Z,1.50
2022-08-18T15:36:28.834Z,1.15
2022-08-18T15:39:00.926Z,0.85
2022-08-18T15:41:44.354Z,0.88
2022-08-18T15:44:14.815Z,1.25
2022-08-18T15:46:43.233Z,1.33
2022-08-18T15:49:19.475Z,1.52
2022-08-18T15:51:49.629Z,1.70
2022-08-18T15:54:19.572Z,0.75
2022-08-18T15:56:57.914Z,1.60
2022-08-18T15:59:34.065Z,1.02
2022-08-18T16:02:11.434Z,1.15
2022-08-18T16:04:41.391Z,1.13
2022-08-18T16:07:15.486Z,1.00
2022-08-18T16:09:45.912Z,1.20
2022-08-18T16:12:14.212Z,1.35
2022-08-18T16:14:42.051Z,1.60
2022-08-18T16:17:18.364Z,1.30
2022-08-18T16:19:51.625Z,1.35
2022-08-18T16:22:19.661Z,1.13
2022-08-18T16:24:55.000Z,1.13
2022-08-18T16:27:23.224Z,1.23
2022-08-18T16:29:51.197Z,0.98
2022-08-18T16:32:19.185Z,1.20
2022-08-18T16:34:46.961Z,1.52
2022-08-18T16:39:47.558Z,1.67
2022-08-18T16:42:22.760Z,1.73
2022-08-18T16:44:50.623Z,1.90
2022-08-18T16:47:18.773Z,1.60
2022-08-18T16:49:48.858Z,1.80
2022-08-18T16:52:18.781Z,1.52
2022-08-18T16:54:47.860Z,0.90
2022-08-18T16:57:53.804Z,1.42
2022-08-18T17:00:43.955Z,1.42
2022-08-18T17:03:33.194Z,1.42
2022-08-18T17:06:07.435Z,1.00
2022-08-18T17:08:35.473Z,1.38
2022-08-18T17:11:05.722Z,0.73
2022-08-18T17:13:34.580Z,1.25
2022-08-18T17:16:02.445Z,1.15
2022-08-18T17:18:30.605Z,1.17
2022-08-18T17:21:10.404Z,1.38
2022-08-18T17:23:42.078Z,1.73
2022-08-18T17:26:27.389Z,1.48
2022-08-18T17:29:05.828Z,1.13
2022-08-18T17:31:37.638Z,1.35
2022-08-18T17:34:13.645Z,1.80
2022-08-18T17:36:56.868Z,1.27
2022-08-18T17:39:37.945Z,1.85
2022-08-18T17:42:25.119Z,1.55
2022-08-18T17:44:59.445Z,1.70
2022-08-18T17:47:56.504Z,1.50
2022-08-18T17:50:53.238Z,2.42
2022-08-18T17:53:22.468Z,1.60
2022-08-18T17:56:00.118Z,1.83
2022-08-18T17:58:56.633Z,1.33
2022-08-18T18:03:54.008Z,1.73
2022-08-18T18:06:42.221Z,1.40
2022-08-18T18:09:21.081Z,1.58
2022-08-18T18:11:48.943Z,1.67
2022-08-18T18:14:28.118Z,2.05
2022-08-18T18:17:15.487Z,2.42
2022-08-18T18:19:48.385Z,2.35
2022-08-18T18:22:21.137Z,1.55
2022-08-18T18:24:57.863Z,1.58
2022-08-18T18:27:33.593Z,1.58
2022-08-18T18:30:07.613Z,1.70
2022-08-18T18:32:59.310Z,2.60
2022-08-18T18:35:31.393Z,1.98
2022-08-18T18:38:22.706Z,1.75
2022-08-18T18:40:56.708Z,2.20
2022-08-18T18:43:31.218Z,1.45
2022-08-18T18:46:08.105Z,1.65
2022-08-18T18:49:05.992Z,1.98
2022-08-18T18:51:57.542Z,2.00
2022-08-18T18:54:59.872Z,2.05
2022-08-18T18:57:41.475Z,1.83
2022-08-18T19:00:18.366Z,1.58
2022-08-18T19:03:03.621Z,1.42
2022-08-18T19:05:53.408Z,1.90
2022-08-18T19:09:10.184Z,1.45
2022-08-18T19:11:49.961Z,1.58
2022-08-18T19:14:23.053Z,1.42
2022-08-18T19:17:17.742Z,1.60
2022-08-18T19:19:59.106Z,1.27
2022-08-18T19:22:41.920Z,1.63
2022-08-18T19:25:48.043Z,1.05
2022-08-18T19:29:12.239Z,1.23
2022-08-18T19:31:54.761Z,1.63
2022-08-18T19:34:32.120Z,1.13
2022-08-18T19:37:27.527Z,1.30
2022-08-18T19:40:09.510Z,1.50
2022-08-18T19:42:43.902Z,1.33
2022-08-18T19:45:21.182Z,1.67
2022-08-18T19:48:01.289Z,1.33
2022-08-18T19:50:43.220Z,2.33
2022-08-18T19:53:14.669Z,1.58
2022-08-18T19:55:54.801Z,1.67
2022-08-18T19:59:04.697Z,1.70
2022-08-18T20:01:44.062Z,1.75
2022-08-18T20:04:23.842Z,1.90
2022-08-18T20:07:01.557Z,1.55
2022-08-18T20:10:08.043Z,1.92
2022-08-18T20:13:10.215Z,1.25
2022-08-18T20:15:59.894Z,1.42
2022-08-18T20:18:51.930Z,1.45
2022-08-18T20:21:22.390Z,1.88
2022-08-18T20:23:59.045Z,1.40
2022-08-18T20:26:39.478Z,1.27
2022-08-18T20:29:11.149Z,1.38
2022-08-18T20:32:00.963Z,1.40
2022-08-18T20:34:35.048Z,1.48
2022-08-18T20:37:08.335Z,1.90
2022-08-18T20:39:54.730Z,1.70
2022-08-18T20:42:26.991Z,2.38
2022-08-18T20:45:07.096Z,1.52
2022-08-18T20:47:53.806Z,1.88
2022-08-18T20:50:46.303Z,1.38
2022-08-18T20:53:27.264Z,1.45
2022-08-18T20:56:43.831Z,1.70
2022-08-18T20:59:20.490Z,1.40
2022-08-18T21:02:07.762Z,1.70
2022-08-18T21:04:50.067Z,1.10
2022-08-18T21:07:37.070Z,1.65
2022-08-18T21:10:20.025Z,1.60
2022-08-18T21:12:55.962Z,1.80
2022-08-18T21:15:35.663Z,2.28
2022-08-18T21:18:07.258Z,1.95
2022-08-18T21:20:35.512Z,1.88
2022-08-18T21:23:10.815Z,1.45
2022-08-18T21:25:53.436Z,1.48
2022-08-18T21:28:22.917Z,1.80
2022-08-18T21:31:41.614Z,1.27
2022-08-18T21:33:59.668Z,1.58
2022-08-18T21:36:32.251Z,1.70
2022-08-18T21:39:07.813Z,2.47
2022-08-18T21:42:02.378Z,1.95
2022-08-18T21:44:42.047Z,1.50
2022-08-18T21:47:26.628Z,1.55
2022-08-18T21:50:08.412Z,1.38
2022-08-18T21:52:39.173Z,2.00
2022-08-18T21:55:19.504Z,1.60
2022-08-18T21:57:51.963Z,1.35
2022-08-18T22:00:29.724Z,1.52
2022-08-18T22:03:22.144Z,1.55
2022-08-18T22:06:27.289Z,1.45
2022-08-18T22:08:59.365Z,1.38
2022-08-18T22:12:00.645Z,1.38
2022-08-18T22:14:53.795Z,1.77
2022-08-18T22:17:43.330Z,1.85
2022-08-18T22:20:48.335Z,2.10
2022-08-18T22:23:34.423Z,1.58
2022-08-18T22:29:06.793Z,2.30
2022-08-18T22:31:38.989Z,1.52
2022-08-18T22:34:16.579Z,1.58
2022-08-18T22:36:52.751Z,2.10
2022-08-18T22:39:46.910Z,1.63
2022-08-18T22:42:17.112Z,1.67
2022-08-18T22:44:45.068Z,1.38
2022-08-18T22:47:13.135Z,2.22
2022-08-18T22:49:42.422Z,1.45
2022-08-18T22:52:37.991Z,1.70
2022-08-18T22:55:09.069Z,1.70
2022-08-18T22:57:39.785Z,1.90
2022-08-18T23:00:15.284Z,1.40
2022-08-18T23:02:47.953Z,2.08
2022-08-18T23:05:15.843Z,1.08
2022-08-18T23:21:52.366Z,1.50
2022-08-18T23:24:21.847Z,1.95
2022-08-18T23:26:50.048Z,2.38
2022-08-18T23:29:19.980Z,1.83
2022-08-18T23:31:51.732Z,1.90
2022-08-18T23:34:23.134Z,1.38
2022-08-18T23:36:56.743Z,1.50
2022-08-18T23:39:26.391Z,1.95
2022-08-18T23:41:55.209Z,1.33
2022-08-18T23:44:27.803Z,1.92
2022-08-18T23:46:59.121Z,1.67
2022-08-18T23:49:28.763Z,1.38
2022-08-18T23:51:57.979Z,1.48
2022-08-18T23:54:32.297Z,2.08
2022-08-18T23:57:00.783Z,1.70
2022-08-18T23:59:30.259Z,1.80
